Accueil
METAR-TAF:

METAR-TAF

Aéroports :

Singapour, Singapour

latitude: 01-22N, longitude: 103-55E, altitude: 18 m

Observation

Le bulletin a été fait il y a 42 minutes, à 23:00 UTC
Vent 3 kt de nord-est
Température 26°C
Humidité 89%
Pression 1012 hPa
Visibilité 10 km ou plus
Quelques nuages à une hauteur de 1600 ft
Nuages épars à une hauteur de 16000 ft
Nuages fragmentés à une hauteur de 30000 ft

METAR: WSAP 212300Z 05003KT 9999 FEW016 SCT160 BKN300 26/24 Q1012

Heure: 07:42 (23:42 UTC)

Prévision

Le bulletin a été fait il y a 6 heures et 42 minutes, à 17:00 UTC
Prévision valable du 21 à 18 UTC au 23 à 00 UTC
Vent 13 kt de nord/nord-est
Visibilité 10 km ou plus
Quelques nuages à une hauteur de 1500 ft
Nuages épars à une hauteur de 2000 ft
Temporairement
du 22 à 04 UTC au 22 à 10 UTC
Vent 15 kt de nord-est avec des rafales jusqu'à 25 kt

TAF: WSAP 211700Z 2118/2300 03013KT 9999 FEW015 SCT020 TEMPO 2204/2210 04015G25KT

Observations et prévisions météorologiques de plus de 4000 aéroports (messages METAR et TAF).

Les stations disponibles sont représentées par des disques jaunes et rouges sur la carte.

Passer la souris dessus pour voir le nom de la station.

Cliquer dessus pour voir les observations et prévisions météorologiques.

Pour changer de carte: cliquez sur les boutons verts avec une croix noire pour zoomer, sur le bouton vert avec un tiret pour effectuer un zoom arrière, ou sur les flèches vertes pour les cartes adjacentes.


METAR-TAF: